Karacabey Hara Airfield

TR-0027 · Bursa, 土耳其

使用的METAR站距离机场36 km。
罗盘
风向 的 风向 070°
风: 1 kt, 1 beaufort

添加一条跑道以查看侧风和逆风信息。

添置 跑道
0 ft 1.000 2.000 3.000 4.000 5.000
Cloud Cloud Cloud Cloud
SCT 1.000
Cloud Cloud Cloud Cloud
SCT 3.500
METAR LTBG 032050Z 07001KT 7000 SCT010 SCT035 09/09 Q1016 NOSIG RMK RWY18 03004KT

METAR Karacabey Hara Airfield - TR-0027

Karacabey Hara Airfield是,土耳其中的小机场。 该机场位于纬度40,15640和经度28,34790。 这个机场没有ICAO代码,我们使用TR-0027作为参考。 机场在Istanbul FIR中。

该航空气象观测是针对Bandırma Airport在2024年3月3日 23:50, 当地时间进行的。

机场观察

风向为070°,速度为1 kt。

可见度为7 km。

有疏云,零星散落的云朵在1.000 ft的高度 和 疏云,零星散落的云朵在3.500 ft的高度。 没有观察到天花板。

温度和风寒是9 °C。 露点为9 °C,相对湿度为100%。 海平面上的气压为1016 hPa (QNH)。

白天

今天,太阳从07:36升起,在19:00降落。 这适用于Karacabey Hara Airfield,世界夏令时可能有所不同。 当地时间与世界标准时间之间的时差为+3 小时。 当前,没有夏令时有效。

公司介绍

我们没有关于这个机场的公司信息。

体会

到Vliegles.nl去找飞行课程,跳伞和其他飞行体验。 浏览页面,了解Karacabey Hara Airfield附近所有可用的活动。 你也可以使用搜索功能来寻找你所在地附近的特定飞行课程、跳伞或其他飞行体验。

乌云

1.000 ft SCT 疏云,零星散落的云朵
3.500 ft SCT 疏云,零星散落的云朵

温度 & 天气

温度 9 °C
露点 9 °C
相对湿度 100%
Kp-index 3 (0-9)

评论

RWY18 03004KT

白天

日出
07:37 (6:49)
中午
13:19
日落
19:02

小工具

你想在你的网站上有一个关于Karacabey Hara Airfield的当前航空天气(METAR)的小部件吗?

显示HTML代码
?>